<?xml version="1.0" encoding="UTF-8" standalone="no" ?>
<gpx xmlns="http://www.topografix.com/GPX/1/1" xmlns:xsi="http://www.w3.org/2001/XMLSchema-instance" xsi:schemaLocation="http://www.topografix.com/GPX/1/1 http://www.topografix.com/GPX/1/1/gpx.xsd" version="1.1" creator="VisuGPX - https://www.visugpx.com">
  <metadata>
    <name>Apprelan</name>
    <desc><![CDATA[Randonnée perso]]></desc>
  </metadata>
  <trk>
    <name><![CDATA[Tracé actuel: 24 AVR 2013 16:26]]></name>
    <trkseg>
      <trkpt lat="45.39941" lon="5.48967">
        <ele>494.26</ele>
        <time>2013-04-24T14:26:00Z</time>
      </trkpt>
      <trkpt lat="45.39943" lon="5.48967">
        <ele>488.49</ele>
        <time>2013-04-24T14:26:31Z</time>
      </trkpt>
      <trkpt lat="45.3994" lon="5.48966">
        <ele>486.08</ele>
        <time>2013-04-24T14:27:11Z</time>
      </trkpt>
      <trkpt lat="45.39939" lon="5.48964">
        <ele>486.56</ele>
        <time>2013-04-24T14:27:43Z</time>
      </trkpt>
      <trkpt lat="45.39939" lon="5.48963">
        <ele>487.05</ele>
        <time>2013-04-24T14:28:24Z</time>
      </trkpt>
      <trkpt lat="45.3994" lon="5.48963">
        <ele>488.01</ele>
        <time>2013-04-24T14:29:07Z</time>
      </trkpt>
      <trkpt lat="45.3994" lon="5.48964">
        <ele>486.56</ele>
        <time>2013-04-24T14:29:53Z</time>
      </trkpt>
      <trkpt lat="45.39941" lon="5.48964">
        <ele>486.08</ele>
        <time>2013-04-24T14:30:24Z</time>
      </trkpt>
      <trkpt lat="45.39941" lon="5.48964">
        <ele>485.12</ele>
        <time>2013-04-24T14:30:57Z</time>
      </trkpt>
      <trkpt lat="45.39941" lon="5.48964">
        <ele>483.68</ele>
        <time>2013-04-24T14:31:26Z</time>
      </trkpt>
      <trkpt lat="45.39941" lon="5.48964">
        <ele>484.16</ele>
        <time>2013-04-24T14:31:53Z</time>
      </trkpt>
      <trkpt lat="45.39941" lon="5.48964">
        <ele>484.64</ele>
        <time>2013-04-24T14:32:24Z</time>
      </trkpt>
      <trkpt lat="45.39941" lon="5.48965">
        <ele>485.12</ele>
        <time>2013-04-24T14:32:53Z</time>
      </trkpt>
      <trkpt lat="45.39941" lon="5.48965">
        <ele>485.6</ele>
        <time>2013-04-24T14:33:20Z</time>
      </trkpt>
      <trkpt lat="45.39942" lon="5.48966">
        <ele>486.08</ele>
        <time>2013-04-24T14:33:56Z</time>
      </trkpt>
      <trkpt lat="45.39942" lon="5.48967">
        <ele>484.64</ele>
        <time>2013-04-24T14:34:34Z</time>
      </trkpt>
      <trkpt lat="45.39942" lon="5.48966">
        <ele>485.12</ele>
        <time>2013-04-24T14:35:02Z</time>
      </trkpt>
      <trkpt lat="45.39943" lon="5.48966">
        <ele>485.12</ele>
        <time>2013-04-24T14:35:36Z</time>
      </trkpt>
      <trkpt lat="45.39945" lon="5.48968">
        <ele>485.6</ele>
        <time>2013-04-24T14:35:48Z</time>
      </trkpt>
      <trkpt lat="45.39945" lon="5.48967">
        <ele>485.6</ele>
        <time>2013-04-24T14:36:16Z</time>
      </trkpt>
      <trkpt lat="45.39945" lon="5.48967">
        <ele>485.6</ele>
        <time>2013-04-24T14:36:42Z</time>
      </trkpt>
      <trkpt lat="45.39945" lon="5.48967">
        <ele>485.6</ele>
        <time>2013-04-24T14:37:15Z</time>
      </trkpt>
      <trkpt lat="45.39945" lon="5.48967">
        <ele>485.6</ele>
        <time>2013-04-24T14:37:53Z</time>
      </trkpt>
      <trkpt lat="45.39944" lon="5.48967">
        <ele>485.6</ele>
        <time>2013-04-24T14:38:33Z</time>
      </trkpt>
      <trkpt lat="45.39942" lon="5.48968">
        <ele>486.56</ele>
        <time>2013-04-24T14:38:50Z</time>
      </trkpt>
      <trkpt lat="45.39941" lon="5.48967">
        <ele>487.05</ele>
        <time>2013-04-24T14:38:53Z</time>
      </trkpt>
      <trkpt lat="45.39937" lon="5.48973">
        <ele>486.56</ele>
        <time>2013-04-24T14:39:07Z</time>
      </trkpt>
      <trkpt lat="45.3994" lon="5.4897">
        <ele>482.72</ele>
        <time>2013-04-24T14:39:20Z</time>
      </trkpt>
      <trkpt lat="45.39938" lon="5.4897">
        <ele>479.84</ele>
        <time>2013-04-24T14:39:37Z</time>
      </trkpt>
      <trkpt lat="45.39934" lon="5.48968">
        <ele>472.63</ele>
        <time>2013-04-24T14:40:03Z</time>
      </trkpt>
      <trkpt lat="45.39947" lon="5.48959">
        <ele>475.51</ele>
        <time>2013-04-24T14:40:23Z</time>
      </trkpt>
      <trkpt lat="45.39946" lon="5.4896">
        <ele>479.84</ele>
        <time>2013-04-24T14:40:29Z</time>
      </trkpt>
      <trkpt lat="45.39936" lon="5.48966">
        <ele>484.16</ele>
        <time>2013-04-24T14:40:42Z</time>
      </trkpt>
      <trkpt lat="45.39936" lon="5.48968">
        <ele>483.68</ele>
        <time>2013-04-24T14:41:00Z</time>
      </trkpt>
      <trkpt lat="45.39937" lon="5.48969">
        <ele>482.72</ele>
        <time>2013-04-24T14:41:22Z</time>
      </trkpt>
      <trkpt lat="45.39936" lon="5.48968">
        <ele>483.68</ele>
        <time>2013-04-24T14:41:40Z</time>
      </trkpt>
      <trkpt lat="45.39936" lon="5.48969">
        <ele>484.64</ele>
        <time>2013-04-24T14:41:58Z</time>
      </trkpt>
      <trkpt lat="45.39936" lon="5.48969">
        <ele>485.12</ele>
        <time>2013-04-24T14:42:25Z</time>
      </trkpt>
      <trkpt lat="45.39936" lon="5.48969">
        <ele>485.12</ele>
        <time>2013-04-24T14:42:26Z</time>
      </trkpt>
      <trkpt lat="45.39936" lon="5.48974">
        <ele>486.56</ele>
        <time>2013-04-24T14:42:32Z</time>
      </trkpt>
      <trkpt lat="45.39939" lon="5.48991">
        <ele>488.49</ele>
        <time>2013-04-24T14:42:41Z</time>
      </trkpt>
      <trkpt lat="45.39986" lon="5.48994">
        <ele>489.93</ele>
        <time>2013-04-24T14:42:57Z</time>
      </trkpt>
      <trkpt lat="45.40012" lon="5.49">
        <ele>492.81</ele>
        <time>2013-04-24T14:43:08Z</time>
      </trkpt>
      <trkpt lat="45.40012" lon="5.49">
        <ele>491.37</ele>
        <time>2013-04-24T14:43:28Z</time>
      </trkpt>
      <trkpt lat="45.40012" lon="5.49">
        <ele>490.41</ele>
        <time>2013-04-24T14:43:50Z</time>
      </trkpt>
      <trkpt lat="45.40018" lon="5.48983">
        <ele>490.89</ele>
        <time>2013-04-24T14:43:56Z</time>
      </trkpt>
      <trkpt lat="45.40027" lon="5.489">
        <ele>490.89</ele>
        <time>2013-04-24T14:44:12Z</time>
      </trkpt>
      <trkpt lat="45.40027" lon="5.48851">
        <ele>491.37</ele>
        <time>2013-04-24T14:44:20Z</time>
      </trkpt>
      <trkpt lat="45.40025" lon="5.48718">
        <ele>490.41</ele>
        <time>2013-04-24T14:44:40Z</time>
      </trkpt>
      <trkpt lat="45.4002" lon="5.48611">
        <ele>489.93</ele>
        <time>2013-04-24T14:44:56Z</time>
      </trkpt>
      <trkpt lat="45.40021" lon="5.48585">
        <ele>489.93</ele>
        <time>2013-04-24T14:45:00Z</time>
      </trkpt>
      <trkpt lat="45.4002" lon="5.4856">
        <ele>489.93</ele>
        <time>2013-04-24T14:45:04Z</time>
      </trkpt>
      <trkpt lat="45.40008" lon="5.48544">
        <ele>489.45</ele>
        <time>2013-04-24T14:45:09Z</time>
      </trkpt>
      <trkpt lat="45.39921" lon="5.48546">
        <ele>487.05</ele>
        <time>2013-04-24T14:45:28Z</time>
      </trkpt>
      <trkpt lat="45.39832" lon="5.4855">
        <ele>484.64</ele>
        <time>2013-04-24T14:45:48Z</time>
      </trkpt>
      <trkpt lat="45.39788" lon="5.48551">
        <ele>484.16</ele>
        <time>2013-04-24T14:46:00Z</time>
      </trkpt>
      <trkpt lat="45.39784" lon="5.4855">
        <ele>484.16</ele>
        <time>2013-04-24T14:46:12Z</time>
      </trkpt>
      <trkpt lat="45.39784" lon="5.4855">
        <ele>485.12</ele>
        <time>2013-04-24T14:46:37Z</time>
      </trkpt>
      <trkpt lat="45.39782" lon="5.4855">
        <ele>485.6</ele>
        <time>2013-04-24T14:46:50Z</time>
      </trkpt>
      <trkpt lat="45.39765" lon="5.48549">
        <ele>484.16</ele>
        <time>2013-04-24T14:47:05Z</time>
      </trkpt>
      <trkpt lat="45.39747" lon="5.48549">
        <ele>483.68</ele>
        <time>2013-04-24T14:47:20Z</time>
      </trkpt>
      <trkpt lat="45.3973" lon="5.4855">
        <ele>483.2</ele>
        <time>2013-04-24T14:47:34Z</time>
      </trkpt>
      <trkpt lat="45.39704" lon="5.48547">
        <ele>482.72</ele>
        <time>2013-04-24T14:47:50Z</time>
      </trkpt>
      <trkpt lat="45.3969" lon="5.48549">
        <ele>481.76</ele>
        <time>2013-04-24T14:47:59Z</time>
      </trkpt>
      <trkpt lat="45.39656" lon="5.4855">
        <ele>479.84</ele>
        <time>2013-04-24T14:48:19Z</time>
      </trkpt>
      <trkpt lat="45.39626" lon="5.48549">
        <ele>478.87</ele>
        <time>2013-04-24T14:48:37Z</time>
      </trkpt>
      <trkpt lat="45.39599" lon="5.48552">
        <ele>478.39</ele>
        <time>2013-04-24T14:48:52Z</time>
      </trkpt>
      <trkpt lat="45.39564" lon="5.48552">
        <ele>478.39</ele>
        <time>2013-04-24T14:49:10Z</time>
      </trkpt>
      <trkpt lat="45.39526" lon="5.48548">
        <ele>477.91</ele>
        <time>2013-04-24T14:49:26Z</time>
      </trkpt>
      <trkpt lat="45.39481" lon="5.48548">
        <ele>478.39</ele>
        <time>2013-04-24T14:49:40Z</time>
      </trkpt>
      <trkpt lat="45.39412" lon="5.4854">
        <ele>478.87</ele>
        <time>2013-04-24T14:49:58Z</time>
      </trkpt>
      <trkpt lat="45.39362" lon="5.48536">
        <ele>478.87</ele>
        <time>2013-04-24T14:50:12Z</time>
      </trkpt>
      <trkpt lat="45.39312" lon="5.48529">
        <ele>477.91</ele>
        <time>2013-04-24T14:50:25Z</time>
      </trkpt>
      <trkpt lat="45.39308" lon="5.48511">
        <ele>478.39</ele>
        <time>2013-04-24T14:50:30Z</time>
      </trkpt>
      <trkpt lat="45.39334" lon="5.48426">
        <ele>479.35</ele>
        <time>2013-04-24T14:50:47Z</time>
      </trkpt>
      <trkpt lat="45.39342" lon="5.4838">
        <ele>479.35</ele>
        <time>2013-04-24T14:50:55Z</time>
      </trkpt>
      <trkpt lat="45.3935" lon="5.48286">
        <ele>478.39</ele>
        <time>2013-04-24T14:51:11Z</time>
      </trkpt>
      <trkpt lat="45.39349" lon="5.48218">
        <ele>478.39</ele>
        <time>2013-04-24T14:51:23Z</time>
      </trkpt>
      <trkpt lat="45.3935" lon="5.48129">
        <ele>479.35</ele>
        <time>2013-04-24T14:51:39Z</time>
      </trkpt>
      <trkpt lat="45.39351" lon="5.4804">
        <ele>479.35</ele>
        <time>2013-04-24T14:51:55Z</time>
      </trkpt>
      <trkpt lat="45.39339" lon="5.47964">
        <ele>479.35</ele>
        <time>2013-04-24T14:52:09Z</time>
      </trkpt>
      <trkpt lat="45.39327" lon="5.47926">
        <ele>479.35</ele>
        <time>2013-04-24T14:52:17Z</time>
      </trkpt>
      <trkpt lat="45.39309" lon="5.47929">
        <ele>478.39</ele>
        <time>2013-04-24T14:52:22Z</time>
      </trkpt>
      <trkpt lat="45.39267" lon="5.47945">
        <ele>479.84</ele>
        <time>2013-04-24T14:52:34Z</time>
      </trkpt>
      <trkpt lat="45.39231" lon="5.47948">
        <ele>479.84</ele>
        <time>2013-04-24T14:52:43Z</time>
      </trkpt>
      <trkpt lat="45.39213" lon="5.47949">
        <ele>479.84</ele>
        <time>2013-04-24T14:52:47Z</time>
      </trkpt>
      <trkpt lat="45.39139" lon="5.47966">
        <ele>478.39</ele>
        <time>2013-04-24T14:53:03Z</time>
      </trkpt>
      <trkpt lat="45.39077" lon="5.4801">
        <ele>476.95</ele>
        <time>2013-04-24T14:53:17Z</time>
      </trkpt>
      <trkpt lat="45.39055" lon="5.48025">
        <ele>476.95</ele>
        <time>2013-04-24T14:53:22Z</time>
      </trkpt>
      <trkpt lat="45.39" lon="5.48103">
        <ele>476.95</ele>
        <time>2013-04-24T14:53:39Z</time>
      </trkpt>
      <trkpt lat="45.38973" lon="5.48181">
        <ele>475.99</ele>
        <time>2013-04-24T14:53:53Z</time>
      </trkpt>
      <trkpt lat="45.38971" lon="5.48187">
        <ele>475.99</ele>
        <time>2013-04-24T14:53:54Z</time>
      </trkpt>
      <trkpt lat="45.38967" lon="5.48212">
        <ele>475.99</ele>
        <time>2013-04-24T14:53:58Z</time>
      </trkpt>
      <trkpt lat="45.38952" lon="5.48279">
        <ele>476.47</ele>
        <time>2013-04-24T14:54:09Z</time>
      </trkpt>
      <trkpt lat="45.38948" lon="5.48304">
        <ele>476.47</ele>
        <time>2013-04-24T14:54:13Z</time>
      </trkpt>
      <trkpt lat="45.38925" lon="5.48411">
        <ele>476.47</ele>
        <time>2013-04-24T14:54:31Z</time>
      </trkpt>
      <trkpt lat="45.38916" lon="5.48432">
        <ele>476.95</ele>
        <time>2013-04-24T14:54:35Z</time>
      </trkpt>
      <trkpt lat="45.38903" lon="5.48462">
        <ele>476.47</ele>
        <time>2013-04-24T14:54:41Z</time>
      </trkpt>
      <trkpt lat="45.38885" lon="5.48493">
        <ele>475.03</ele>
        <time>2013-04-24T14:54:52Z</time>
      </trkpt>
      <trkpt lat="45.38878" lon="5.48509">
        <ele>473.59</ele>
        <time>2013-04-24T14:54:57Z</time>
      </trkpt>
      <trkpt lat="45.38854" lon="5.48564">
        <ele>470.22</ele>
        <time>2013-04-24T14:55:05Z</time>
      </trkpt>
      <trkpt lat="45.38849" lon="5.48586">
        <ele>469.74</ele>
        <time>2013-04-24T14:55:08Z</time>
      </trkpt>
      <trkpt lat="45.38835" lon="5.48659">
        <ele>469.74</ele>
        <time>2013-04-24T14:55:20Z</time>
      </trkpt>
      <trkpt lat="45.38833" lon="5.48677">
        <ele>469.26</ele>
        <time>2013-04-24T14:55:23Z</time>
      </trkpt>
      <trkpt lat="45.38811" lon="5.48754">
        <ele>470.22</ele>
        <time>2013-04-24T14:55:38Z</time>
      </trkpt>
      <trkpt lat="45.38794" lon="5.48815">
        <ele>469.74</ele>
        <time>2013-04-24T14:55:50Z</time>
      </trkpt>
      <trkpt lat="45.38781" lon="5.48875">
        <ele>470.22</ele>
        <time>2013-04-24T14:56:01Z</time>
      </trkpt>
      <trkpt lat="45.38744" lon="5.48908">
        <ele>469.26</ele>
        <time>2013-04-24T14:56:12Z</time>
      </trkpt>
      <trkpt lat="45.38737" lon="5.48914">
        <ele>468.78</ele>
        <time>2013-04-24T14:56:14Z</time>
      </trkpt>
      <trkpt lat="45.3873" lon="5.48921">
        <ele>468.3</ele>
        <time>2013-04-24T14:56:16Z</time>
      </trkpt>
      <trkpt lat="45.3871" lon="5.48939">
        <ele>468.3</ele>
        <time>2013-04-24T14:56:21Z</time>
      </trkpt>
      <trkpt lat="45.38698" lon="5.48947">
        <ele>468.78</ele>
        <time>2013-04-24T14:56:24Z</time>
      </trkpt>
      <trkpt lat="45.3868" lon="5.48956">
        <ele>470.7</ele>
        <time>2013-04-24T14:56:29Z</time>
      </trkpt>
      <trkpt lat="45.38633" lon="5.48991">
        <ele>475.99</ele>
        <time>2013-04-24T14:56:42Z</time>
      </trkpt>
      <trkpt lat="45.38601" lon="5.49053">
        <ele>477.91</ele>
        <time>2013-04-24T14:56:55Z</time>
      </trkpt>
      <trkpt lat="45.38594" lon="5.4907">
        <ele>479.35</ele>
        <time>2013-04-24T14:57:00Z</time>
      </trkpt>
      <trkpt lat="45.3859" lon="5.49076">
        <ele>479.35</ele>
        <time>2013-04-24T14:57:09Z</time>
      </trkpt>
      <trkpt lat="45.38578" lon="5.49074">
        <ele>477.43</ele>
        <time>2013-04-24T14:57:20Z</time>
      </trkpt>
      <trkpt lat="45.3856" lon="5.49069">
        <ele>475.99</ele>
        <time>2013-04-24T14:57:29Z</time>
      </trkpt>
      <trkpt lat="45.38548" lon="5.49064">
        <ele>475.03</ele>
        <time>2013-04-24T14:57:42Z</time>
      </trkpt>
      <trkpt lat="45.38543" lon="5.49064">
        <ele>475.03</ele>
        <time>2013-04-24T14:57:52Z</time>
      </trkpt>
      <trkpt lat="45.38514" lon="5.49053">
        <ele>475.51</ele>
        <time>2013-04-24T14:58:03Z</time>
      </trkpt>
      <trkpt lat="45.38468" lon="5.49049">
        <ele>473.11</ele>
        <time>2013-04-24T14:58:16Z</time>
      </trkpt>
      <trkpt lat="45.38428" lon="5.49053">
        <ele>472.63</ele>
        <time>2013-04-24T14:58:26Z</time>
      </trkpt>
      <trkpt lat="45.38386" lon="5.49073">
        <ele>473.59</ele>
        <time>2013-04-24T14:58:38Z</time>
      </trkpt>
      <trkpt lat="45.38349" lon="5.49085">
        <ele>474.55</ele>
        <time>2013-04-24T14:58:49Z</time>
      </trkpt>
      <trkpt lat="45.38294" lon="5.49118">
        <ele>474.55</ele>
        <time>2013-04-24T14:59:06Z</time>
      </trkpt>
      <trkpt lat="45.38245" lon="5.4913">
        <ele>475.99</ele>
        <time>2013-04-24T14:59:20Z</time>
      </trkpt>
      <trkpt lat="45.38195" lon="5.49119">
        <ele>475.03</ele>
        <time>2013-04-24T14:59:34Z</time>
      </trkpt>
      <trkpt lat="45.38151" lon="5.491">
        <ele>476.47</ele>
        <time>2013-04-24T14:59:46Z</time>
      </trkpt>
      <trkpt lat="45.38109" lon="5.49081">
        <ele>478.39</ele>
        <time>2013-04-24T14:59:57Z</time>
      </trkpt>
      <trkpt lat="45.38098" lon="5.49074">
        <ele>478.39</ele>
        <time>2013-04-24T15:00:00Z</time>
      </trkpt>
      <trkpt lat="45.38081" lon="5.49067">
        <ele>477.91</ele>
        <time>2013-04-24T15:00:04Z</time>
      </trkpt>
      <trkpt lat="45.38067" lon="5.49055">
        <ele>476.47</ele>
        <time>2013-04-24T15:00:08Z</time>
      </trkpt>
      <trkpt lat="45.38037" lon="5.49034">
        <ele>476.47</ele>
        <time>2013-04-24T15:00:20Z</time>
      </trkpt>
      <trkpt lat="45.38028" lon="5.49035">
        <ele>475.03</ele>
        <time>2013-04-24T15:00:25Z</time>
      </trkpt>
      <trkpt lat="45.38043" lon="5.49055">
        <ele>470.7</ele>
        <time>2013-04-24T15:00:36Z</time>
      </trkpt>
      <trkpt lat="45.38073" lon="5.49088">
        <ele>466.86</ele>
        <time>2013-04-24T15:00:46Z</time>
      </trkpt>
      <trkpt lat="45.381" lon="5.49117">
        <ele>462.53</ele>
        <time>2013-04-24T15:00:54Z</time>
      </trkpt>
      <trkpt lat="45.38108" lon="5.49127">
        <ele>461.09</ele>
        <time>2013-04-24T15:00:56Z</time>
      </trkpt>
      <trkpt lat="45.38123" lon="5.49144">
        <ele>458.21</ele>
        <time>2013-04-24T15:01:00Z</time>
      </trkpt>
      <trkpt lat="45.38143" lon="5.49167">
        <ele>454.84</ele>
        <time>2013-04-24T15:01:05Z</time>
      </trkpt>
      <trkpt lat="45.38182" lon="5.49205">
        <ele>448.11</ele>
        <time>2013-04-24T15:01:15Z</time>
      </trkpt>
      <trkpt lat="45.38214" lon="5.49222">
        <ele>444.27</ele>
        <time>2013-04-24T15:01:23Z</time>
      </trkpt>
      <trkpt lat="45.38235" lon="5.49234">
        <ele>441.86</ele>
        <time>2013-04-24T15:01:31Z</time>
      </trkpt>
      <trkpt lat="45.38233" lon="5.49235">
        <ele>441.38</ele>
        <time>2013-04-24T15:01:32Z</time>
      </trkpt>
      <trkpt lat="45.38187" lon="5.49256">
        <ele>432.73</ele>
        <time>2013-04-24T15:01:43Z</time>
      </trkpt>
      <trkpt lat="45.38177" lon="5.49262">
        <ele>430.81</ele>
        <time>2013-04-24T15:01:46Z</time>
      </trkpt>
      <trkpt lat="45.38178" lon="5.49268">
        <ele>431.29</ele>
        <time>2013-04-24T15:01:50Z</time>
      </trkpt>
      <trkpt lat="45.38187" lon="5.49271">
        <ele>430.81</ele>
        <time>2013-04-24T15:01:53Z</time>
      </trkpt>
      <trkpt lat="45.3826" lon="5.49279">
        <ele>432.25</ele>
        <time>2013-04-24T15:02:11Z</time>
      </trkpt>
      <trkpt lat="45.38309" lon="5.49319">
        <ele>428.4</ele>
        <time>2013-04-24T15:02:26Z</time>
      </trkpt>
      <trkpt lat="45.38324" lon="5.49345">
        <ele>427.44</ele>
        <time>2013-04-24T15:02:36Z</time>
      </trkpt>
      <trkpt lat="45.38322" lon="5.4935">
        <ele>427.44</ele>
        <time>2013-04-24T15:02:41Z</time>
      </trkpt>
      <trkpt lat="45.38308" lon="5.49353">
        <ele>426.96</ele>
        <time>2013-04-24T15:02:47Z</time>
      </trkpt>
      <trkpt lat="45.38287" lon="5.49365">
        <ele>426.48</ele>
        <time>2013-04-24T15:02:53Z</time>
      </trkpt>
      <trkpt lat="45.38236" lon="5.49405">
        <ele>426.48</ele>
        <time>2013-04-24T15:03:08Z</time>
      </trkpt>
      <trkpt lat="45.38209" lon="5.49423">
        <ele>426.48</ele>
        <time>2013-04-24T15:03:17Z</time>
      </trkpt>
      <trkpt lat="45.38205" lon="5.49427">
        <ele>426.96</ele>
        <time>2013-04-24T15:03:23Z</time>
      </trkpt>
      <trkpt lat="45.38234" lon="5.49408">
        <ele>425.52</ele>
        <time>2013-04-24T15:03:35Z</time>
      </trkpt>
      <trkpt lat="45.38282" lon="5.49369">
        <ele>425.52</ele>
        <time>2013-04-24T15:03:50Z</time>
      </trkpt>
      <trkpt lat="45.38318" lon="5.49351">
        <ele>425.52</ele>
        <time>2013-04-24T15:04:01Z</time>
      </trkpt>
      <trkpt lat="45.38316" lon="5.49327">
        <ele>425.52</ele>
        <time>2013-04-24T15:04:07Z</time>
      </trkpt>
      <trkpt lat="45.38278" lon="5.49286">
        <ele>426</ele>
        <time>2013-04-24T15:04:19Z</time>
      </trkpt>
      <trkpt lat="45.38225" lon="5.49274">
        <ele>426.96</ele>
        <time>2013-04-24T15:04:32Z</time>
      </trkpt>
      <trkpt lat="45.38171" lon="5.49265">
        <ele>427.44</ele>
        <time>2013-04-24T15:04:46Z</time>
      </trkpt>
      <trkpt lat="45.38155" lon="5.49263">
        <ele>426.48</ele>
        <time>2013-04-24T15:04:51Z</time>
      </trkpt>
      <trkpt lat="45.38132" lon="5.49256">
        <ele>424.08</ele>
        <time>2013-04-24T15:04:56Z</time>
      </trkpt>
      <trkpt lat="45.38086" lon="5.49241">
        <ele>422.16</ele>
        <time>2013-04-24T15:05:04Z</time>
      </trkpt>
      <trkpt lat="45.38057" lon="5.49233">
        <ele>420.71</ele>
        <time>2013-04-24T15:05:13Z</time>
      </trkpt>
      <trkpt lat="45.3804" lon="5.49227">
        <ele>418.31</ele>
        <time>2013-04-24T15:05:18Z</time>
      </trkpt>
      <trkpt lat="45.37979" lon="5.49221">
        <ele>405.81</ele>
        <time>2013-04-24T15:05:32Z</time>
      </trkpt>
      <trkpt lat="45.37974" lon="5.49218">
        <ele>404.37</ele>
        <time>2013-04-24T15:05:34Z</time>
      </trkpt>
      <trkpt lat="45.37968" lon="5.49219">
        <ele>402.45</ele>
        <time>2013-04-24T15:05:42Z</time>
      </trkpt>
      <trkpt lat="45.37974" lon="5.49233">
        <ele>401.49</ele>
        <time>2013-04-24T15:05:47Z</time>
      </trkpt>
      <trkpt lat="45.38007" lon="5.49262">
        <ele>402.93</ele>
        <time>2013-04-24T15:05:59Z</time>
      </trkpt>
      <trkpt lat="45.38046" lon="5.49308">
        <ele>404.85</ele>
        <time>2013-04-24T15:06:16Z</time>
      </trkpt>
      <trkpt lat="45.38071" lon="5.49362">
        <ele>407.74</ele>
        <time>2013-04-24T15:06:30Z</time>
      </trkpt>
      <trkpt lat="45.381" lon="5.49444">
        <ele>409.66</ele>
        <time>2013-04-24T15:06:45Z</time>
      </trkpt>
      <trkpt lat="45.38121" lon="5.49524">
        <ele>412.06</ele>
        <time>2013-04-24T15:07:02Z</time>
      </trkpt>
      <trkpt lat="45.38145" lon="5.4956">
        <ele>414.47</ele>
        <time>2013-04-24T15:07:14Z</time>
      </trkpt>
      <trkpt lat="45.38177" lon="5.49583">
        <ele>417.35</ele>
        <time>2013-04-24T15:07:26Z</time>
      </trkpt>
      <trkpt lat="45.38209" lon="5.4962">
        <ele>418.31</ele>
        <time>2013-04-24T15:07:40Z</time>
      </trkpt>
      <trkpt lat="45.38228" lon="5.49667">
        <ele>419.75</ele>
        <time>2013-04-24T15:07:54Z</time>
      </trkpt>
      <trkpt lat="45.38245" lon="5.49714">
        <ele>420.71</ele>
        <time>2013-04-24T15:08:08Z</time>
      </trkpt>
      <trkpt lat="45.38263" lon="5.49767">
        <ele>420.71</ele>
        <time>2013-04-24T15:08:22Z</time>
      </trkpt>
      <trkpt lat="45.383" lon="5.49781">
        <ele>422.64</ele>
        <time>2013-04-24T15:08:36Z</time>
      </trkpt>
      <trkpt lat="45.38325" lon="5.49764">
        <ele>426</ele>
        <time>2013-04-24T15:08:48Z</time>
      </trkpt>
      <trkpt lat="45.38354" lon="5.49735">
        <ele>428.89</ele>
        <time>2013-04-24T15:09:03Z</time>
      </trkpt>
      <trkpt lat="45.38386" lon="5.49711">
        <ele>432.73</ele>
        <time>2013-04-24T15:09:18Z</time>
      </trkpt>
      <trkpt lat="45.38424" lon="5.49702">
        <ele>439.94</ele>
        <time>2013-04-24T15:09:34Z</time>
      </trkpt>
      <trkpt lat="45.3846" lon="5.49706">
        <ele>447.15</ele>
        <time>2013-04-24T15:09:48Z</time>
      </trkpt>
      <trkpt lat="45.38498" lon="5.49725">
        <ele>451</ele>
        <time>2013-04-24T15:10:03Z</time>
      </trkpt>
      <trkpt lat="45.38533" lon="5.49743">
        <ele>452.92</ele>
        <time>2013-04-24T15:10:18Z</time>
      </trkpt>
      <trkpt lat="45.38555" lon="5.49753">
        <ele>449.55</ele>
        <time>2013-04-24T15:10:27Z</time>
      </trkpt>
      <trkpt lat="45.38576" lon="5.49774">
        <ele>445.23</ele>
        <time>2013-04-24T15:10:38Z</time>
      </trkpt>
      <trkpt lat="45.38603" lon="5.49806">
        <ele>445.71</ele>
        <time>2013-04-24T15:10:51Z</time>
      </trkpt>
      <trkpt lat="45.38636" lon="5.4982">
        <ele>444.27</ele>
        <time>2013-04-24T15:11:05Z</time>
      </trkpt>
      <trkpt lat="45.38664" lon="5.49833">
        <ele>446.19</ele>
        <time>2013-04-24T15:11:17Z</time>
      </trkpt>
      <trkpt lat="45.38687" lon="5.49851">
        <ele>452.92</ele>
        <time>2013-04-24T15:11:27Z</time>
      </trkpt>
      <trkpt lat="45.38718" lon="5.49863">
        <ele>460.13</ele>
        <time>2013-04-24T15:11:40Z</time>
      </trkpt>
      <trkpt lat="45.38749" lon="5.49853">
        <ele>469.26</ele>
        <time>2013-04-24T15:11:53Z</time>
      </trkpt>
      <trkpt lat="45.38787" lon="5.49852">
        <ele>478.39</ele>
        <time>2013-04-24T15:12:08Z</time>
      </trkpt>
      <trkpt lat="45.38793" lon="5.49855">
        <ele>479.84</ele>
        <time>2013-04-24T15:12:11Z</time>
      </trkpt>
      <trkpt lat="45.38821" lon="5.49862">
        <ele>478.87</ele>
        <time>2013-04-24T15:12:25Z</time>
      </trkpt>
      <trkpt lat="45.38836" lon="5.49862">
        <ele>481.28</ele>
        <time>2013-04-24T15:12:38Z</time>
      </trkpt>
      <trkpt lat="45.38867" lon="5.49867">
        <ele>485.12</ele>
        <time>2013-04-24T15:12:51Z</time>
      </trkpt>
      <trkpt lat="45.38898" lon="5.49866">
        <ele>488.01</ele>
        <time>2013-04-24T15:13:03Z</time>
      </trkpt>
      <trkpt lat="45.38926" lon="5.4985">
        <ele>494.74</ele>
        <time>2013-04-24T15:13:16Z</time>
      </trkpt>
      <trkpt lat="45.38951" lon="5.49824">
        <ele>494.74</ele>
        <time>2013-04-24T15:13:28Z</time>
      </trkpt>
      <trkpt lat="45.38983" lon="5.49804">
        <ele>493.77</ele>
        <time>2013-04-24T15:13:40Z</time>
      </trkpt>
      <trkpt lat="45.39011" lon="5.49793">
        <ele>495.22</ele>
        <time>2013-04-24T15:13:51Z</time>
      </trkpt>
      <trkpt lat="45.39047" lon="5.4979">
        <ele>498.1</ele>
        <time>2013-04-24T15:14:04Z</time>
      </trkpt>
      <trkpt lat="45.39081" lon="5.49794">
        <ele>500.02</ele>
        <time>2013-04-24T15:14:17Z</time>
      </trkpt>
      <trkpt lat="45.39112" lon="5.49799">
        <ele>504.83</ele>
        <time>2013-04-24T15:14:30Z</time>
      </trkpt>
      <trkpt lat="45.3915" lon="5.49802">
        <ele>498.1</ele>
        <time>2013-04-24T15:14:44Z</time>
      </trkpt>
      <trkpt lat="45.39186" lon="5.49807">
        <ele>487.05</ele>
        <time>2013-04-24T15:14:57Z</time>
      </trkpt>
      <trkpt lat="45.3923" lon="5.49833">
        <ele>479.84</ele>
        <time>2013-04-24T15:15:14Z</time>
      </trkpt>
      <trkpt lat="45.39262" lon="5.49843">
        <ele>476.47</ele>
        <time>2013-04-24T15:15:27Z</time>
      </trkpt>
      <trkpt lat="45.39293" lon="5.49839">
        <ele>477.43</ele>
        <time>2013-04-24T15:15:39Z</time>
      </trkpt>
      <trkpt lat="45.3933" lon="5.49833">
        <ele>479.35</ele>
        <time>2013-04-24T15:15:54Z</time>
      </trkpt>
      <trkpt lat="45.39353" lon="5.49852">
        <ele>481.28</ele>
        <time>2013-04-24T15:16:05Z</time>
      </trkpt>
      <trkpt lat="45.39373" lon="5.49869">
        <ele>484.16</ele>
        <time>2013-04-24T15:16:14Z</time>
      </trkpt>
      <trkpt lat="45.39393" lon="5.49885">
        <ele>485.12</ele>
        <time>2013-04-24T15:16:24Z</time>
      </trkpt>
      <trkpt lat="45.39407" lon="5.49896">
        <ele>484.64</ele>
        <time>2013-04-24T15:16:32Z</time>
      </trkpt>
      <trkpt lat="45.39437" lon="5.49932">
        <ele>485.6</ele>
        <time>2013-04-24T15:16:49Z</time>
      </trkpt>
      <trkpt lat="45.39467" lon="5.49975">
        <ele>485.6</ele>
        <time>2013-04-24T15:17:05Z</time>
      </trkpt>
      <trkpt lat="45.395" lon="5.50017">
        <ele>484.64</ele>
        <time>2013-04-24T15:17:19Z</time>
      </trkpt>
      <trkpt lat="45.39539" lon="5.50068">
        <ele>485.12</ele>
        <time>2013-04-24T15:17:35Z</time>
      </trkpt>
      <trkpt lat="45.39573" lon="5.50121">
        <ele>485.12</ele>
        <time>2013-04-24T15:17:50Z</time>
      </trkpt>
      <trkpt lat="45.39594" lon="5.50181">
        <ele>486.08</ele>
        <time>2013-04-24T15:18:05Z</time>
      </trkpt>
      <trkpt lat="45.39606" lon="5.50235">
        <ele>486.08</ele>
        <time>2013-04-24T15:18:17Z</time>
      </trkpt>
      <trkpt lat="45.39631" lon="5.50303">
        <ele>486.08</ele>
        <time>2013-04-24T15:18:34Z</time>
      </trkpt>
      <trkpt lat="45.39671" lon="5.50359">
        <ele>487.05</ele>
        <time>2013-04-24T15:18:51Z</time>
      </trkpt>
      <trkpt lat="45.39691" lon="5.50402">
        <ele>488.01</ele>
        <time>2013-04-24T15:19:05Z</time>
      </trkpt>
      <trkpt lat="45.3972" lon="5.50457">
        <ele>488.01</ele>
        <time>2013-04-24T15:19:20Z</time>
      </trkpt>
      <trkpt lat="45.39759" lon="5.50506">
        <ele>488.97</ele>
        <time>2013-04-24T15:19:36Z</time>
      </trkpt>
      <trkpt lat="45.3979" lon="5.50542">
        <ele>489.93</ele>
        <time>2013-04-24T15:19:49Z</time>
      </trkpt>
      <trkpt lat="45.39816" lon="5.50589">
        <ele>491.37</ele>
        <time>2013-04-24T15:20:03Z</time>
      </trkpt>
      <trkpt lat="45.39816" lon="5.50593">
        <ele>490.89</ele>
        <time>2013-04-24T15:20:04Z</time>
      </trkpt>
      <trkpt lat="45.39816" lon="5.50602">
        <ele>490.41</ele>
        <time>2013-04-24T15:20:16Z</time>
      </trkpt>
      <trkpt lat="45.39816" lon="5.50601">
        <ele>492.33</ele>
        <time>2013-04-24T15:20:47Z</time>
      </trkpt>
      <trkpt lat="45.39816" lon="5.50601">
        <ele>492.33</ele>
        <time>2013-04-24T15:20:48Z</time>
      </trkpt>
      <trkpt lat="45.39815" lon="5.50599">
        <ele>492.33</ele>
        <time>2013-04-24T15:20:51Z</time>
      </trkpt>
      <trkpt lat="45.39813" lon="5.50587">
        <ele>491.85</ele>
        <time>2013-04-24T15:20:58Z</time>
      </trkpt>
      <trkpt lat="45.39804" lon="5.5056">
        <ele>492.33</ele>
        <time>2013-04-24T15:21:09Z</time>
      </trkpt>
      <trkpt lat="45.39801" lon="5.50557">
        <ele>492.33</ele>
        <time>2013-04-24T15:21:10Z</time>
      </trkpt>
      <trkpt lat="45.39749" lon="5.50495">
        <ele>492.33</ele>
        <time>2013-04-24T15:21:27Z</time>
      </trkpt>
      <trkpt lat="45.39729" lon="5.50468">
        <ele>492.33</ele>
        <time>2013-04-24T15:21:34Z</time>
      </trkpt>
      <trkpt lat="45.39726" lon="5.50428">
        <ele>489.93</ele>
        <time>2013-04-24T15:21:41Z</time>
      </trkpt>
      <trkpt lat="45.39725" lon="5.50385">
        <ele>489.45</ele>
        <time>2013-04-24T15:21:49Z</time>
      </trkpt>
      <trkpt lat="45.39699" lon="5.50382">
        <ele>489.45</ele>
        <time>2013-04-24T15:21:57Z</time>
      </trkpt>
      <trkpt lat="45.39682" lon="5.5037">
        <ele>489.45</ele>
        <time>2013-04-24T15:22:02Z</time>
      </trkpt>
      <trkpt lat="45.39668" lon="5.50347">
        <ele>488.97</ele>
        <time>2013-04-24T15:22:07Z</time>
      </trkpt>
      <trkpt lat="45.39653" lon="5.50323">
        <ele>488.49</ele>
        <time>2013-04-24T15:22:12Z</time>
      </trkpt>
      <trkpt lat="45.39635" lon="5.50301">
        <ele>487.53</ele>
        <time>2013-04-24T15:22:17Z</time>
      </trkpt>
      <trkpt lat="45.39628" lon="5.50292">
        <ele>487.53</ele>
        <time>2013-04-24T15:22:19Z</time>
      </trkpt>
      <trkpt lat="45.39615" lon="5.50261">
        <ele>487.05</ele>
        <time>2013-04-24T15:22:24Z</time>
      </trkpt>
      <trkpt lat="45.39597" lon="5.50181">
        <ele>486.08</ele>
        <time>2013-04-24T15:22:36Z</time>
      </trkpt>
      <trkpt lat="45.39593" lon="5.50161">
        <ele>486.08</ele>
        <time>2013-04-24T15:22:39Z</time>
      </trkpt>
      <trkpt lat="45.39549" lon="5.50077">
        <ele>484.16</ele>
        <time>2013-04-24T15:22:53Z</time>
      </trkpt>
      <trkpt lat="45.39534" lon="5.50055">
        <ele>483.68</ele>
        <time>2013-04-24T15:22:57Z</time>
      </trkpt>
      <trkpt lat="45.39524" lon="5.50042">
        <ele>483.68</ele>
        <time>2013-04-24T15:23:00Z</time>
      </trkpt>
      <trkpt lat="45.39485" lon="5.49996">
        <ele>483.68</ele>
        <time>2013-04-24T15:23:15Z</time>
      </trkpt>
      <trkpt lat="45.39454" lon="5.49954">
        <ele>484.16</ele>
        <time>2013-04-24T15:23:27Z</time>
      </trkpt>
      <trkpt lat="45.39424" lon="5.49908">
        <ele>483.2</ele>
        <time>2013-04-24T15:23:38Z</time>
      </trkpt>
      <trkpt lat="45.39417" lon="5.49901">
        <ele>482.72</ele>
        <time>2013-04-24T15:23:40Z</time>
      </trkpt>
      <trkpt lat="45.39352" lon="5.49847">
        <ele>476.95</ele>
        <time>2013-04-24T15:23:51Z</time>
      </trkpt>
      <trkpt lat="45.39337" lon="5.49836">
        <ele>475.99</ele>
        <time>2013-04-24T15:23:53Z</time>
      </trkpt>
      <trkpt lat="45.39305" lon="5.49833">
        <ele>474.55</ele>
        <time>2013-04-24T15:23:57Z</time>
      </trkpt>
      <trkpt lat="45.39282" lon="5.4984">
        <ele>474.07</ele>
        <time>2013-04-24T15:24:00Z</time>
      </trkpt>
      <trkpt lat="45.39259" lon="5.49841">
        <ele>473.11</ele>
        <time>2013-04-24T15:24:03Z</time>
      </trkpt>
      <trkpt lat="45.3922" lon="5.49822">
        <ele>471.18</ele>
        <time>2013-04-24T15:24:08Z</time>
      </trkpt>
      <trkpt lat="45.39206" lon="5.4981">
        <ele>470.7</ele>
        <time>2013-04-24T15:24:10Z</time>
      </trkpt>
      <trkpt lat="45.39114" lon="5.49782">
        <ele>467.34</ele>
        <time>2013-04-24T15:24:21Z</time>
      </trkpt>
      <trkpt lat="45.38993" lon="5.4979">
        <ele>463.97</ele>
        <time>2013-04-24T15:24:35Z</time>
      </trkpt>
      <trkpt lat="45.3897" lon="5.49803">
        <ele>463.01</ele>
        <time>2013-04-24T15:24:38Z</time>
      </trkpt>
      <trkpt lat="45.3893" lon="5.49843">
        <ele>459.65</ele>
        <time>2013-04-24T15:24:44Z</time>
      </trkpt>
      <trkpt lat="45.3888" lon="5.49854">
        <ele>456.28</ele>
        <time>2013-04-24T15:24:50Z</time>
      </trkpt>
      <trkpt lat="45.38801" lon="5.49842">
        <ele>454.36</ele>
        <time>2013-04-24T15:24:59Z</time>
      </trkpt>
      <trkpt lat="45.38724" lon="5.49862">
        <ele>450.52</ele>
        <time>2013-04-24T15:25:08Z</time>
      </trkpt>
      <trkpt lat="45.3867" lon="5.49841">
        <ele>449.55</ele>
        <time>2013-04-24T15:25:15Z</time>
      </trkpt>
      <trkpt lat="45.38629" lon="5.49824">
        <ele>449.55</ele>
        <time>2013-04-24T15:25:20Z</time>
      </trkpt>
      <trkpt lat="45.38591" lon="5.49795">
        <ele>450.52</ele>
        <time>2013-04-24T15:25:25Z</time>
      </trkpt>
      <trkpt lat="45.38565" lon="5.49763">
        <ele>450.52</ele>
        <time>2013-04-24T15:25:29Z</time>
      </trkpt>
      <trkpt lat="45.38542" lon="5.49746">
        <ele>451</ele>
        <time>2013-04-24T15:25:32Z</time>
      </trkpt>
      <trkpt lat="45.38419" lon="5.49709">
        <ele>448.11</ele>
        <time>2013-04-24T15:25:46Z</time>
      </trkpt>
      <trkpt lat="45.3834" lon="5.49752">
        <ele>443.31</ele>
        <time>2013-04-24T15:25:56Z</time>
      </trkpt>
      <trkpt lat="45.38303" lon="5.49777">
        <ele>437.54</ele>
        <time>2013-04-24T15:26:01Z</time>
      </trkpt>
      <trkpt lat="45.38253" lon="5.49751">
        <ele>428.89</ele>
        <time>2013-04-24T15:26:08Z</time>
      </trkpt>
      <trkpt lat="45.38247" lon="5.4972">
        <ele>426.48</ele>
        <time>2013-04-24T15:26:11Z</time>
      </trkpt>
      <trkpt lat="45.3821" lon="5.49615">
        <ele>420.23</ele>
        <time>2013-04-24T15:26:23Z</time>
      </trkpt>
      <trkpt lat="45.38146" lon="5.49556">
        <ele>415.91</ele>
        <time>2013-04-24T15:26:33Z</time>
      </trkpt>
      <trkpt lat="45.3812" lon="5.4951">
        <ele>413.5</ele>
        <time>2013-04-24T15:26:38Z</time>
      </trkpt>
      <trkpt lat="45.3806" lon="5.49329">
        <ele>407.26</ele>
        <time>2013-04-24T15:26:55Z</time>
      </trkpt>
      <trkpt lat="45.38027" lon="5.49276">
        <ele>405.33</ele>
        <time>2013-04-24T15:27:01Z</time>
      </trkpt>
      <trkpt lat="45.37975" lon="5.49228">
        <ele>400.05</ele>
        <time>2013-04-24T15:27:11Z</time>
      </trkpt>
      <trkpt lat="45.37973" lon="5.49225">
        <ele>400.05</ele>
        <time>2013-04-24T15:27:12Z</time>
      </trkpt>
      <trkpt lat="45.37977" lon="5.49217">
        <ele>399.57</ele>
        <time>2013-04-24T15:27:17Z</time>
      </trkpt>
      <trkpt lat="45.37983" lon="5.49218">
        <ele>399.57</ele>
        <time>2013-04-24T15:27:21Z</time>
      </trkpt>
      <trkpt lat="45.3799" lon="5.49222">
        <ele>400.05</ele>
        <time>2013-04-24T15:27:26Z</time>
      </trkpt>
      <trkpt lat="45.38006" lon="5.49222">
        <ele>402.93</ele>
        <time>2013-04-24T15:27:37Z</time>
      </trkpt>
      <trkpt lat="45.38023" lon="5.49225">
        <ele>407.74</ele>
        <time>2013-04-24T15:27:50Z</time>
      </trkpt>
      <trkpt lat="45.38033" lon="5.49226">
        <ele>409.18</ele>
        <time>2013-04-24T15:27:57Z</time>
      </trkpt>
      <trkpt lat="45.38048" lon="5.49227">
        <ele>411.58</ele>
        <time>2013-04-24T15:28:10Z</time>
      </trkpt>
      <trkpt lat="45.38053" lon="5.49227">
        <ele>412.54</ele>
        <time>2013-04-24T15:28:14Z</time>
      </trkpt>
      <trkpt lat="45.38056" lon="5.49228">
        <ele>414.47</ele>
        <time>2013-04-24T15:28:19Z</time>
      </trkpt>
      <trkpt lat="45.38059" lon="5.49233">
        <ele>416.39</ele>
        <time>2013-04-24T15:28:30Z</time>
      </trkpt>
      <trkpt lat="45.38083" lon="5.49241">
        <ele>419.27</ele>
        <time>2013-04-24T15:28:42Z</time>
      </trkpt>
      <trkpt lat="45.38095" lon="5.49241">
        <ele>422.16</ele>
        <time>2013-04-24T15:28:49Z</time>
      </trkpt>
      <trkpt lat="45.38105" lon="5.49245">
        <ele>424.56</ele>
        <time>2013-04-24T15:28:56Z</time>
      </trkpt>
      <trkpt lat="45.38111" lon="5.49249">
        <ele>426.96</ele>
        <time>2013-04-24T15:29:01Z</time>
      </trkpt>
      <trkpt lat="45.38119" lon="5.49253">
        <ele>429.37</ele>
        <time>2013-04-24T15:29:06Z</time>
      </trkpt>
      <trkpt lat="45.38144" lon="5.49261">
        <ele>430.33</ele>
        <time>2013-04-24T15:29:21Z</time>
      </trkpt>
      <trkpt lat="45.38173" lon="5.49262">
        <ele>433.21</ele>
        <time>2013-04-24T15:29:37Z</time>
      </trkpt>
      <trkpt lat="45.38192" lon="5.49254">
        <ele>436.58</ele>
        <time>2013-04-24T15:29:50Z</time>
      </trkpt>
      <trkpt lat="45.38201" lon="5.49251">
        <ele>438.5</ele>
        <time>2013-04-24T15:29:57Z</time>
      </trkpt>
      <trkpt lat="45.38219" lon="5.49246">
        <ele>442.82</ele>
        <time>2013-04-24T15:30:11Z</time>
      </trkpt>
      <trkpt lat="45.38223" lon="5.49244">
        <ele>443.31</ele>
        <time>2013-04-24T15:30:14Z</time>
      </trkpt>
      <trkpt lat="45.38229" lon="5.4924">
        <ele>445.23</ele>
        <time>2013-04-24T15:30:28Z</time>
      </trkpt>
      <trkpt lat="45.38231" lon="5.49237">
        <ele>444.27</ele>
        <time>2013-04-24T15:30:56Z</time>
      </trkpt>
      <trkpt lat="45.38233" lon="5.49236">
        <ele>444.27</ele>
        <time>2013-04-24T15:31:04Z</time>
      </trkpt>
      <trkpt lat="45.38237" lon="5.4923">
        <ele>443.79</ele>
        <time>2013-04-24T15:31:09Z</time>
      </trkpt>
      <trkpt lat="45.38226" lon="5.49225">
        <ele>442.34</ele>
        <time>2013-04-24T15:31:20Z</time>
      </trkpt>
      <trkpt lat="45.38208" lon="5.49224">
        <ele>444.27</ele>
        <time>2013-04-24T15:31:32Z</time>
      </trkpt>
      <trkpt lat="45.38198" lon="5.4922">
        <ele>447.15</ele>
        <time>2013-04-24T15:31:40Z</time>
      </trkpt>
      <trkpt lat="45.38194" lon="5.49217">
        <ele>448.59</ele>
        <time>2013-04-24T15:31:44Z</time>
      </trkpt>
      <trkpt lat="45.38192" lon="5.49216">
        <ele>448.11</ele>
        <time>2013-04-24T15:31:46Z</time>
      </trkpt>
      <trkpt lat="45.38187" lon="5.49211">
        <ele>448.11</ele>
        <time>2013-04-24T15:31:51Z</time>
      </trkpt>
      <trkpt lat="45.38183" lon="5.49207">
        <ele>449.07</ele>
        <time>2013-04-24T15:31:54Z</time>
      </trkpt>
      <trkpt lat="45.38172" lon="5.49198">
        <ele>451.96</ele>
        <time>2013-04-24T15:32:06Z</time>
      </trkpt>
      <trkpt lat="45.38171" lon="5.49197">
        <ele>451.96</ele>
        <time>2013-04-24T15:32:07Z</time>
      </trkpt>
      <trkpt lat="45.38167" lon="5.49191">
        <ele>452.44</ele>
        <time>2013-04-24T15:32:12Z</time>
      </trkpt>
      <trkpt lat="45.38162" lon="5.49186">
        <ele>452.92</ele>
        <time>2013-04-24T15:32:16Z</time>
      </trkpt>
      <trkpt lat="45.38161" lon="5.49182">
        <ele>452.92</ele>
        <time>2013-04-24T15:32:18Z</time>
      </trkpt>
      <trkpt lat="45.38146" lon="5.49165">
        <ele>455.32</ele>
        <time>2013-04-24T15:32:30Z</time>
      </trkpt>
      <trkpt lat="45.38143" lon="5.49163">
        <ele>455.8</ele>
        <time>2013-04-24T15:32:32Z</time>
      </trkpt>
      <trkpt lat="45.38126" lon="5.49137">
        <ele>453.88</ele>
        <time>2013-04-24T15:32:48Z</time>
      </trkpt>
      <trkpt lat="45.38111" lon="5.49121">
        <ele>454.84</ele>
        <time>2013-04-24T15:32:58Z</time>
      </trkpt>
      <trkpt lat="45.38101" lon="5.49114">
        <ele>458.21</ele>
        <time>2013-04-24T15:33:11Z</time>
      </trkpt>
      <trkpt lat="45.38094" lon="5.49107">
        <ele>459.65</ele>
        <time>2013-04-24T15:33:25Z</time>
      </trkpt>
      <trkpt lat="45.38083" lon="5.49096">
        <ele>460.61</ele>
        <time>2013-04-24T15:33:34Z</time>
      </trkpt>
      <trkpt lat="45.38073" lon="5.49085">
        <ele>463.01</ele>
        <time>2013-04-24T15:33:44Z</time>
      </trkpt>
      <trkpt lat="45.38069" lon="5.49082">
        <ele>463.01</ele>
        <time>2013-04-24T15:33:47Z</time>
      </trkpt>
      <trkpt lat="45.38062" lon="5.49075">
        <ele>464.93</ele>
        <time>2013-04-24T15:33:53Z</time>
      </trkpt>
      <trkpt lat="45.38044" lon="5.49058">
        <ele>468.3</ele>
        <time>2013-04-24T15:34:08Z</time>
      </trkpt>
      <trkpt lat="45.38026" lon="5.49039">
        <ele>469.74</ele>
        <time>2013-04-24T15:34:22Z</time>
      </trkpt>
      <trkpt lat="45.38027" lon="5.49035">
        <ele>469.74</ele>
        <time>2013-04-24T15:34:26Z</time>
      </trkpt>
      <trkpt lat="45.38033" lon="5.49032">
        <ele>470.22</ele>
        <time>2013-04-24T15:34:40Z</time>
      </trkpt>
      <trkpt lat="45.38039" lon="5.49032">
        <ele>471.66</ele>
        <time>2013-04-24T15:34:54Z</time>
      </trkpt>
      <trkpt lat="45.38063" lon="5.49048">
        <ele>474.07</ele>
        <time>2013-04-24T15:35:07Z</time>
      </trkpt>
      <trkpt lat="45.38096" lon="5.49073">
        <ele>478.39</ele>
        <time>2013-04-24T15:35:20Z</time>
      </trkpt>
      <trkpt lat="45.38129" lon="5.49089">
        <ele>478.39</ele>
        <time>2013-04-24T15:35:32Z</time>
      </trkpt>
      <trkpt lat="45.38165" lon="5.49107">
        <ele>478.39</ele>
        <time>2013-04-24T15:35:46Z</time>
      </trkpt>
      <trkpt lat="45.38202" lon="5.49122">
        <ele>481.76</ele>
        <time>2013-04-24T15:35:59Z</time>
      </trkpt>
      <trkpt lat="45.38248" lon="5.49128">
        <ele>487.53</ele>
        <time>2013-04-24T15:36:13Z</time>
      </trkpt>
      <trkpt lat="45.38285" lon="5.49115">
        <ele>490.89</ele>
        <time>2013-04-24T15:36:25Z</time>
      </trkpt>
      <trkpt lat="45.38313" lon="5.49101">
        <ele>494.26</ele>
        <time>2013-04-24T15:36:34Z</time>
      </trkpt>
      <trkpt lat="45.38353" lon="5.49089">
        <ele>492.81</ele>
        <time>2013-04-24T15:36:46Z</time>
      </trkpt>
      <trkpt lat="45.38389" lon="5.49069">
        <ele>490.41</ele>
        <time>2013-04-24T15:36:56Z</time>
      </trkpt>
      <trkpt lat="45.38421" lon="5.49057">
        <ele>490.89</ele>
        <time>2013-04-24T15:37:05Z</time>
      </trkpt>
      <trkpt lat="45.38438" lon="5.49056">
        <ele>490.89</ele>
        <time>2013-04-24T15:37:10Z</time>
      </trkpt>
      <trkpt lat="45.38466" lon="5.49056">
        <ele>488.49</ele>
        <time>2013-04-24T15:37:19Z</time>
      </trkpt>
      <trkpt lat="45.38512" lon="5.49055">
        <ele>484.16</ele>
        <time>2013-04-24T15:37:33Z</time>
      </trkpt>
      <trkpt lat="45.38538" lon="5.49058">
        <ele>478.87</ele>
        <time>2013-04-24T15:37:44Z</time>
      </trkpt>
      <trkpt lat="45.38549" lon="5.4906">
        <ele>476.47</ele>
        <time>2013-04-24T15:37:54Z</time>
      </trkpt>
      <trkpt lat="45.38558" lon="5.49065">
        <ele>475.51</ele>
        <time>2013-04-24T15:38:08Z</time>
      </trkpt>
      <trkpt lat="45.38559" lon="5.49066">
        <ele>474.55</ele>
        <time>2013-04-24T15:38:14Z</time>
      </trkpt>
      <trkpt lat="45.38562" lon="5.49067">
        <ele>474.55</ele>
        <time>2013-04-24T15:38:16Z</time>
      </trkpt>
      <trkpt lat="45.38581" lon="5.49074">
        <ele>472.63</ele>
        <time>2013-04-24T15:38:28Z</time>
      </trkpt>
      <trkpt lat="45.38587" lon="5.49075">
        <ele>472.14</ele>
        <time>2013-04-24T15:38:32Z</time>
      </trkpt>
      <trkpt lat="45.38598" lon="5.49057">
        <ele>472.14</ele>
        <time>2013-04-24T15:38:43Z</time>
      </trkpt>
      <trkpt lat="45.38621" lon="5.49">
        <ele>475.99</ele>
        <time>2013-04-24T15:38:58Z</time>
      </trkpt>
      <trkpt lat="45.38643" lon="5.48979">
        <ele>479.84</ele>
        <time>2013-04-24T15:39:08Z</time>
      </trkpt>
      <trkpt lat="45.3866" lon="5.48968">
        <ele>481.76</ele>
        <time>2013-04-24T15:39:19Z</time>
      </trkpt>
      <trkpt lat="45.38682" lon="5.48959">
        <ele>482.24</ele>
        <time>2013-04-24T15:39:30Z</time>
      </trkpt>
      <trkpt lat="45.38722" lon="5.48924">
        <ele>487.53</ele>
        <time>2013-04-24T15:39:42Z</time>
      </trkpt>
      <trkpt lat="45.38771" lon="5.48882">
        <ele>480.32</ele>
        <time>2013-04-24T15:39:52Z</time>
      </trkpt>
      <trkpt lat="45.3879" lon="5.48824">
        <ele>473.11</ele>
        <time>2013-04-24T15:40:04Z</time>
      </trkpt>
      <trkpt lat="45.38809" lon="5.48759">
        <ele>470.22</ele>
        <time>2013-04-24T15:40:18Z</time>
      </trkpt>
      <trkpt lat="45.38828" lon="5.48692">
        <ele>469.74</ele>
        <time>2013-04-24T15:40:32Z</time>
      </trkpt>
      <trkpt lat="45.38838" lon="5.48625">
        <ele>469.74</ele>
        <time>2013-04-24T15:40:46Z</time>
      </trkpt>
      <trkpt lat="45.38856" lon="5.48548">
        <ele>469.26</ele>
        <time>2013-04-24T15:41:02Z</time>
      </trkpt>
      <trkpt lat="45.38867" lon="5.48523">
        <ele>470.22</ele>
        <time>2013-04-24T15:41:09Z</time>
      </trkpt>
      <trkpt lat="45.38882" lon="5.48495">
        <ele>473.59</ele>
        <time>2013-04-24T15:41:22Z</time>
      </trkpt>
      <trkpt lat="45.38882" lon="5.48495">
        <ele>473.11</ele>
        <time>2013-04-24T15:41:27Z</time>
      </trkpt>
      <trkpt lat="45.38885" lon="5.48493">
        <ele>473.59</ele>
        <time>2013-04-24T15:41:30Z</time>
      </trkpt>
      <trkpt lat="45.38893" lon="5.48478">
        <ele>476.95</ele>
        <time>2013-04-24T15:41:38Z</time>
      </trkpt>
      <trkpt lat="45.38909" lon="5.48443">
        <ele>477.43</ele>
        <time>2013-04-24T15:41:51Z</time>
      </trkpt>
      <trkpt lat="45.38934" lon="5.48386">
        <ele>475.51</ele>
        <time>2013-04-24T15:42:06Z</time>
      </trkpt>
      <trkpt lat="45.38947" lon="5.48309">
        <ele>474.55</ele>
        <time>2013-04-24T15:42:23Z</time>
      </trkpt>
      <trkpt lat="45.3896" lon="5.48242">
        <ele>474.07</ele>
        <time>2013-04-24T15:42:37Z</time>
      </trkpt>
      <trkpt lat="45.3898" lon="5.48158">
        <ele>474.07</ele>
        <time>2013-04-24T15:42:55Z</time>
      </trkpt>
      <trkpt lat="45.39007" lon="5.48089">
        <ele>474.55</ele>
        <time>2013-04-24T15:43:11Z</time>
      </trkpt>
      <trkpt lat="45.39044" lon="5.48036">
        <ele>474.55</ele>
        <time>2013-04-24T15:43:27Z</time>
      </trkpt>
      <trkpt lat="45.39088" lon="5.48002">
        <ele>475.51</ele>
        <time>2013-04-24T15:43:41Z</time>
      </trkpt>
      <trkpt lat="45.39141" lon="5.47965">
        <ele>475.51</ele>
        <time>2013-04-24T15:43:57Z</time>
      </trkpt>
      <trkpt lat="45.39191" lon="5.47951">
        <ele>475.99</ele>
        <time>2013-04-24T15:44:12Z</time>
      </trkpt>
      <trkpt lat="45.39243" lon="5.47947">
        <ele>477.43</ele>
        <time>2013-04-24T15:44:27Z</time>
      </trkpt>
      <trkpt lat="45.39295" lon="5.47936">
        <ele>477.91</ele>
        <time>2013-04-24T15:44:42Z</time>
      </trkpt>
      <trkpt lat="45.3932" lon="5.47924">
        <ele>479.84</ele>
        <time>2013-04-24T15:44:53Z</time>
      </trkpt>
      <trkpt lat="45.39321" lon="5.47922">
        <ele>480.32</ele>
        <time>2013-04-24T15:45:10Z</time>
      </trkpt>
      <trkpt lat="45.39324" lon="5.47921">
        <ele>480.32</ele>
        <time>2013-04-24T15:45:33Z</time>
      </trkpt>
      <trkpt lat="45.39336" lon="5.4796">
        <ele>479.35</ele>
        <time>2013-04-24T15:45:45Z</time>
      </trkpt>
      <trkpt lat="45.39348" lon="5.48045">
        <ele>478.39</ele>
        <time>2013-04-24T15:46:00Z</time>
      </trkpt>
      <trkpt lat="45.39347" lon="5.48152">
        <ele>477.91</ele>
        <time>2013-04-24T15:46:18Z</time>
      </trkpt>
      <trkpt lat="45.39347" lon="5.48278">
        <ele>476.95</ele>
        <time>2013-04-24T15:46:37Z</time>
      </trkpt>
      <trkpt lat="45.39343" lon="5.48332">
        <ele>476.47</ele>
        <time>2013-04-24T15:46:45Z</time>
      </trkpt>
      <trkpt lat="45.39342" lon="5.48357">
        <ele>476.95</ele>
        <time>2013-04-24T15:46:49Z</time>
      </trkpt>
      <trkpt lat="45.39325" lon="5.48449">
        <ele>477.43</ele>
        <time>2013-04-24T15:47:04Z</time>
      </trkpt>
      <trkpt lat="45.39299" lon="5.4853">
        <ele>477.91</ele>
        <time>2013-04-24T15:47:18Z</time>
      </trkpt>
      <trkpt lat="45.39283" lon="5.48646">
        <ele>478.39</ele>
        <time>2013-04-24T15:47:37Z</time>
      </trkpt>
      <trkpt lat="45.39276" lon="5.48765">
        <ele>478.87</ele>
        <time>2013-04-24T15:47:56Z</time>
      </trkpt>
      <trkpt lat="45.39272" lon="5.48835">
        <ele>478.87</ele>
        <time>2013-04-24T15:48:07Z</time>
      </trkpt>
      <trkpt lat="45.39265" lon="5.4896">
        <ele>479.35</ele>
        <time>2013-04-24T15:48:27Z</time>
      </trkpt>
      <trkpt lat="45.39261" lon="5.49038">
        <ele>480.32</ele>
        <time>2013-04-24T15:48:39Z</time>
      </trkpt>
      <trkpt lat="45.39266" lon="5.49165">
        <ele>480.8</ele>
        <time>2013-04-24T15:48:59Z</time>
      </trkpt>
      <trkpt lat="45.3929" lon="5.4929">
        <ele>480.8</ele>
        <time>2013-04-24T15:49:19Z</time>
      </trkpt>
      <trkpt lat="45.39311" lon="5.49419">
        <ele>481.76</ele>
        <time>2013-04-24T15:49:40Z</time>
      </trkpt>
      <trkpt lat="45.39315" lon="5.49471">
        <ele>481.76</ele>
        <time>2013-04-24T15:49:48Z</time>
      </trkpt>
      <trkpt lat="45.39315" lon="5.49504">
        <ele>481.76</ele>
        <time>2013-04-24T15:49:53Z</time>
      </trkpt>
      <trkpt lat="45.39313" lon="5.49529">
        <ele>481.28</ele>
        <time>2013-04-24T15:49:57Z</time>
      </trkpt>
      <trkpt lat="45.393" lon="5.49635">
        <ele>483.2</ele>
        <time>2013-04-24T15:50:15Z</time>
      </trkpt>
      <trkpt lat="45.39297" lon="5.49697">
        <ele>483.2</ele>
        <time>2013-04-24T15:50:26Z</time>
      </trkpt>
      <trkpt lat="45.39314" lon="5.49705">
        <ele>483.2</ele>
        <time>2013-04-24T15:50:31Z</time>
      </trkpt>
      <trkpt lat="45.394" lon="5.49679">
        <ele>484.16</ele>
        <time>2013-04-24T15:50:50Z</time>
      </trkpt>
      <trkpt lat="45.39431" lon="5.4967">
        <ele>484.16</ele>
        <time>2013-04-24T15:50:57Z</time>
      </trkpt>
      <trkpt lat="45.39448" lon="5.49665">
        <ele>484.16</ele>
        <time>2013-04-24T15:51:01Z</time>
      </trkpt>
      <trkpt lat="45.39478" lon="5.4966">
        <ele>485.12</ele>
        <time>2013-04-24T15:51:08Z</time>
      </trkpt>
      <trkpt lat="45.39552" lon="5.49646">
        <ele>486.08</ele>
        <time>2013-04-24T15:51:25Z</time>
      </trkpt>
      <trkpt lat="45.39631" lon="5.49636">
        <ele>487.53</ele>
        <time>2013-04-24T15:51:43Z</time>
      </trkpt>
      <trkpt lat="45.39704" lon="5.49625">
        <ele>488.01</ele>
        <time>2013-04-24T15:51:59Z</time>
      </trkpt>
      <trkpt lat="45.39745" lon="5.49625">
        <ele>487.53</ele>
        <time>2013-04-24T15:52:08Z</time>
      </trkpt>
      <trkpt lat="45.39754" lon="5.49624">
        <ele>487.05</ele>
        <time>2013-04-24T15:52:10Z</time>
      </trkpt>
      <trkpt lat="45.39823" lon="5.49628">
        <ele>488.01</ele>
        <time>2013-04-24T15:52:25Z</time>
      </trkpt>
      <trkpt lat="45.39832" lon="5.49629">
        <ele>488.01</ele>
        <time>2013-04-24T15:52:27Z</time>
      </trkpt>
      <trkpt lat="45.39897" lon="5.49594">
        <ele>487.05</ele>
        <time>2013-04-24T15:52:43Z</time>
      </trkpt>
      <trkpt lat="45.39917" lon="5.49584">
        <ele>486.56</ele>
        <time>2013-04-24T15:52:48Z</time>
      </trkpt>
      <trkpt lat="45.39957" lon="5.49589">
        <ele>490.89</ele>
        <time>2013-04-24T15:53:01Z</time>
      </trkpt>
      <trkpt lat="45.39965" lon="5.4959">
        <ele>492.81</ele>
        <time>2013-04-24T15:53:05Z</time>
      </trkpt>
      <trkpt lat="45.39975" lon="5.49577">
        <ele>493.77</ele>
        <time>2013-04-24T15:53:12Z</time>
      </trkpt>
      <trkpt lat="45.39978" lon="5.49475">
        <ele>492.33</ele>
        <time>2013-04-24T15:53:32Z</time>
      </trkpt>
      <trkpt lat="45.39983" lon="5.49374">
        <ele>492.33</ele>
        <time>2013-04-24T15:53:51Z</time>
      </trkpt>
      <trkpt lat="45.39988" lon="5.4928">
        <ele>491.85</ele>
        <time>2013-04-24T15:54:07Z</time>
      </trkpt>
      <trkpt lat="45.39997" lon="5.49154">
        <ele>490.89</ele>
        <time>2013-04-24T15:54:27Z</time>
      </trkpt>
      <trkpt lat="45.40003" lon="5.49111">
        <ele>490.89</ele>
        <time>2013-04-24T15:54:34Z</time>
      </trkpt>
      <trkpt lat="45.40013" lon="5.49013">
        <ele>490.89</ele>
        <time>2013-04-24T15:54:51Z</time>
      </trkpt>
      <trkpt lat="45.40013" lon="5.49007">
        <ele>490.41</ele>
        <time>2013-04-24T15:54:52Z</time>
      </trkpt>
      <trkpt lat="45.39988" lon="5.48993">
        <ele>490.41</ele>
        <time>2013-04-24T15:55:00Z</time>
      </trkpt>
      <trkpt lat="45.39935" lon="5.48991">
        <ele>489.45</ele>
        <time>2013-04-24T15:55:17Z</time>
      </trkpt>
      <trkpt lat="45.39933" lon="5.4899">
        <ele>489.45</ele>
        <time>2013-04-24T15:55:18Z</time>
      </trkpt>
      <trkpt lat="45.39931" lon="5.48975">
        <ele>489.45</ele>
        <time>2013-04-24T15:55:24Z</time>
      </trkpt>
      <trkpt lat="45.39933" lon="5.48969">
        <ele>488.97</ele>
        <time>2013-04-24T15:55:39Z</time>
      </trkpt>
      <trkpt lat="45.39933" lon="5.48969">
        <ele>490.41</ele>
        <time>2013-04-24T15:56:08Z</time>
      </trkpt>
      <trkpt lat="45.39932" lon="5.48969">
        <ele>490.89</ele>
        <time>2013-04-24T15:56:12Z</time>
      </trkpt>
      <trkpt lat="45.39948" lon="5.48964">
        <ele>500.02</ele>
        <time>2013-04-24T15:58:47Z</time>
      </trkpt>
      <trkpt lat="45.39944" lon="5.48963">
        <ele>495.22</ele>
        <time>2013-04-24T15:58:54Z</time>
      </trkpt>
      <trkpt lat="45.3993" lon="5.48972">
        <ele>490.41</ele>
        <time>2013-04-24T15:59:07Z</time>
      </trkpt>
      <trkpt lat="45.39931" lon="5.48974">
        <ele>497.14</ele>
        <time>2013-04-24T15:59:18Z</time>
      </trkpt>
      <trkpt lat="45.39934" lon="5.48966">
        <ele>497.62</ele>
        <time>2013-04-24T15:59:36Z</time>
      </trkpt>
      <trkpt lat="45.39936" lon="5.48958">
        <ele>496.66</ele>
        <time>2013-04-24T15:59:57Z</time>
      </trkpt>
      <trkpt lat="45.39944" lon="5.48965">
        <ele>498.1</ele>
        <time>2013-04-24T16:00:58Z</time>
      </trkpt>
      <trkpt lat="45.39947" lon="5.48957">
        <ele>501.46</ele>
        <time>2013-04-24T16:01:17Z</time>
      </trkpt>
      <trkpt lat="45.3996" lon="5.48945">
        <ele>508.19</ele>
        <time>2013-04-24T16:01:37Z</time>
      </trkpt>
      <trkpt lat="45.39942" lon="5.48966">
        <ele>494.26</ele>
        <time>2013-04-24T16:01:53Z</time>
      </trkpt>
      <trkpt lat="45.39937" lon="5.48965">
        <ele>494.74</ele>
        <time>2013-04-24T16:02:18Z</time>
      </trkpt>
      <trkpt lat="45.39938" lon="5.48965">
        <ele>494.74</ele>
        <time>2013-04-24T16:02:51Z</time>
      </trkpt>
    </trkseg>
  </trk>
</gpx>